Time;durP1;ratioP1;P1;durP2;ratioP2;P2;SDS_P1;SDS_P2;PMS_P1;PMS_P2;Temp;Humidity;BMP_temperature;BMP_pressure;BME280_temperature;BME280_humidity;BME280_pressure;Samples;Min_cycle;Max_cycle;Signal;HPM_P1;HPM_P2
2022/10/18 00:00:00;;;;;;;9.70;2.38;;;10.60;99.90;;;;;;5048682;28;20044;-63
2022/10/18 00:02:26;;;;;;;3.47;1.50;;;10.60;99.90;;;;;;5051315;28;20049;-64
2022/10/18 00:04:53;;;;;;;8.85;2.20;;;10.50;99.90;;;;;;5051953;28;20056;-64
2022/10/18 00:07:20;;;;;;;8.43;1.90;;;10.40;99.90;;;;;;5052027;28;20049;-63
2022/10/18 00:09:47;;;;;;;5.43;2.10;;;10.50;99.90;;;;;;5052479;28;20064;-63
2022/10/18 00:12:13;;;;;;;10.95;2.72;;;10.40;99.90;;;;;;5052172;28;20139;-63
2022/10/18 00:14:40;;;;;;;13.43;2.63;;;10.40;99.90;;;;;;5051480;28;20133;-63
2022/10/18 00:17:07;;;;;;;7.65;1.83;;;10.40;99.90;;;;;;5052113;28;20538;-63
2022/10/18 00:19:33;;;;;;;7.55;2.00;;;10.40;99.90;;;;;;5051614;28;20080;-63
2022/10/18 00:22:00;;;;;;;10.48;2.40;;;10.40;99.90;;;;;;5049402;28;20059;-63
2022/10/18 00:24:27;;;;;;;14.15;2.72;;;10.40;99.90;;;;;;5050324;28;20059;-64
2022/10/18 00:26:54;;;;;;;8.95;2.55;;;10.40;99.90;;;;;;5051793;28;20049;-63
2022/10/18 00:29:20;;;;;;;6.20;1.83;;;10.40;99.90;;;;;;5051968;28;20416;-63
2022/10/18 00:31:47;;;;;;;7.82;2.33;;;10.30;99.90;;;;;;5051655;28;20132;-64
2022/10/18 00:34:14;;;;;;;10.93;2.67;;;10.30;99.90;;;;;;5052007;28;20141;-62
2022/10/18 00:36:42;;;;;;;9.95;1.80;;;10.20;99.90;;;;;;5050082;28;20045;-62
2022/10/18 00:39:16;;;;;;;9.02;2.67;;;10.10;99.90;;;;;;5051875;28;20045;-63
2022/10/18 00:41:43;;;;;;;4.07;1.55;;;10.20;99.90;;;;;;5050339;28;20052;-62
2022/10/18 00:44:09;;;;;;;8.90;2.40;;;10.20;99.90;;;;;;5051842;28;20041;-63
2022/10/18 00:46:38;;;;;;;10.93;2.88;;;10.10;99.90;;;;;;5051560;28;20056;-63
2022/10/18 00:49:16;;;;;;;8.75;2.05;;;10.10;99.90;;;;;;5051585;28;20136;-63
2022/10/18 00:51:49;;;;;;;11.63;3.10;;;10.00;99.90;;;;;;5051658;28;20056;-63
2022/10/18 00:54:16;;;;;;;8.63;1.92;;;10.10;99.90;;;;;;5051479;28;20522;-63
2022/10/18 00:56:43;;;;;;;7.97;2.50;;;10.00;99.90;;;;;;5050188;28;20415;-63
2022/10/18 00:59:11;;;;;;;9.30;2.30;;;10.10;99.90;;;;;;5051275;28;20091;-63
2022/10/18 01:01:38;;;;;;;12.27;2.88;;;10.00;99.90;;;;;;5033498;28;20055;-63
2022/10/18 01:04:05;;;;;;;12.48;2.03;;;10.00;99.90;;;;;;5051158;28;20492;-63
2022/10/18 01:06:32;;;;;;;6.95;2.13;;;10.00;99.90;;;;;;5051048;28;20041;-63
2022/10/18 01:09:25;;;;;;;7.13;1.70;;;10.00;99.90;;;;;;5050022;28;20041;-63
2022/10/18 01:11:59;;;;;;;8.80;2.17;;;9.90;99.90;;;;;;5050898;28;20503;-63
2022/10/18 01:14:34;;;;;;;;;;;9.90;99.90;;;;;;5050603;28;20493;-63
2022/10/18 01:17:32;;;;;;;8.60;2.10;;;9.90;99.90;;;;;;5049862;28;19920;-63
2022/10/18 01:20:34;;;;;;;7.90;1.85;;;9.90;99.90;;;;;;5051038;28;20107;-62
2022/10/18 01:23:18;;;;;;;6.85;1.60;;;9.80;99.90;;;;;;5049361;28;20127;-63
2022/10/18 01:25:54;;;;;;;10.23;1.70;;;9.80;99.90;;;;;;5051048;28;20056;-63
2022/10/18 01:28:33;;;;;;;6.50;1.73;;;9.90;99.90;;;;;;5049336;28;20059;-62
2022/10/18 01:31:08;;;;;;;5.72;2.15;;;9.80;99.90;;;;;;5050853;28;20506;-62
2022/10/18 01:34:04;;;;;;;8.77;2.08;;;9.80;99.90;;;;;;5033308;28;20085;-62
2022/10/18 01:36:33;;;;;;;3.85;1.17;;;9.80;99.90;;;;;;5021259;28;20195;-62
2022/10/18 01:39:01;;;;;;;11.20;2.45;;;9.80;99.90;;;;;;5046971;28;20514;-63
2022/10/18 01:41:28;;;;;;;5.50;1.30;;;9.80;99.90;;;;;;5030481;28;20049;-62
2022/10/18 01:43:57;;;;;;;10.93;3.33;;;9.70;99.90;;;;;;5048822;28;20107;-62
2022/10/18 01:46:24;;;;;;;7.15;1.50;;;9.70;99.90;;;;;;5033155;28;20261;-62
2022/10/18 01:48:52;;;;;;;4.63;1.15;;;9.70;99.90;;;;;;5049050;28;20049;-62
2022/10/18 01:51:29;;;;;;;6.28;1.38;;;9.60;99.90;;;;;;5049160;28;20069;-63
2022/10/18 01:53:55;;;;;;;5.95;1.55;;;9.50;99.90;;;;;;5050405;28;20044;-63
2022/10/18 01:56:43;;;;;;;5.28;1.65;;;9.50;99.90;;;;;;5050567;28;20128;-63
2022/10/18 01:59:27;;;;;;;6.55;1.45;;;9.50;99.90;;;;;;5049274;28;20049;-63
2022/10/18 02:02:05;;;;;;;11.98;2.13;;;9.50;99.90;;;;;;5050217;28;20106;-63
2022/10/18 02:04:41;;;;;;;7.20;1.75;;;9.40;99.90;;;;;;5048931;28;20041;-63
2022/10/18 02:08:06;;;;;;;6.57;1.77;;;9.40;99.90;;;;;;5050294;28;20144;-62
2022/10/18 02:10:49;;;;;;;10.52;1.98;;;9.30;99.90;;;;;;5027483;28;20174;-63
2022/10/18 02:13:17;;;;;;;11.95;1.45;;;9.40;99.90;;;;;;5011096;28;20045;-62
2022/10/18 02:15:46;;;;;;;5.50;1.50;;;9.30;99.90;;;;;;4999906;28;20092;-63
2022/10/18 02:18:24;;;;;;;4.40;1.50;;;9.20;99.90;;;;;;5048634;28;20149;-62
2022/10/18 02:20:51;;;;;;;5.82;1.20;;;9.30;99.90;;;;;;5024975;28;20051;-63
2022/10/18 02:23:20;;;;;;;4.72;1.50;;;9.20;99.90;;;;;;5044883;28;20055;-62
2022/10/18 02:25:47;;;;;;;9.77;2.45;;;9.30;99.90;;;;;;5036528;28;20048;-62
2022/10/18 02:28:13;;;;;;;6.50;1.30;;;9.30;99.90;;;;;;5032139;28;20111;-63
2022/10/18 02:30:47;;;;;;;3.63;1.20;;;9.30;99.90;;;;;;5049474;28;20045;-63
2022/10/18 02:33:34;;;;;;;6.38;1.80;;;9.30;99.90;;;;;;5032572;28;20518;-62
2022/10/18 02:36:04;;;;;;;6.70;1.70;;;9.20;99.90;;;;;;5049297;28;20044;-62
2022/10/18 02:38:31;;;;;;;6.40;1.80;;;9.20;99.90;;;;;;5032318;28;20045;-63
2022/10/18 02:40:58;;;;;;;6.85;1.48;;;9.20;99.90;;;;;;5047842;28;20057;-62
2022/10/18 02:43:24;;;;;;;6.30;2.67;;;9.20;99.90;;;;;;5048171;28;20704;-61
2022/10/18 02:45:51;;;;;;;5.72;1.80;;;9.20;99.90;;;;;;5047986;28;20053;-62
2022/10/18 02:48:18;;;;;;;8.63;1.95;;;9.20;99.90;;;;;;5047915;28;20449;-62
2022/10/18 02:50:44;;;;;;;5.13;1.70;;;9.20;99.90;;;;;;5048046;28;20049;-62
2022/10/18 02:53:11;;;;;;;3.22;1.08;;;9.10;99.90;;;;;;5049334;28;20052;-62
2022/10/18 02:55:38;;;;;;;4.35;1.55;;;9.10;99.90;;;;;;5047850;28;20049;-62
2022/10/18 02:58:05;;;;;;;3.38;1.33;;;9.10;99.90;;;;;;5049169;28;20053;-61
2022/10/18 03:00:31;;;;;;;2.95;1.20;;;9.10;99.90;;;;;;5048723;28;20052;-61
2022/10/18 03:02:58;;;;;;;4.22;1.25;;;9.00;99.90;;;;;;5049242;28;20045;-61
2022/10/18 03:05:25;;;;;;;7.05;1.40;;;9.00;99.90;;;;;;5048729;28;20055;-61
2022/10/18 03:07:51;;;;;;;6.57;1.40;;;9.00;99.90;;;;;;5038034;28;20057;-61
2022/10/18 03:10:18;;;;;;;6.15;1.60;;;8.90;99.90;;;;;;5048959;28;20112;-61
2022/10/18 03:12:45;;;;;;;8.18;1.75;;;8.90;99.90;;;;;;5048306;28;20049;-62
2022/10/18 03:15:12;;;;;;;4.05;1.38;;;8.90;99.90;;;;;;5048847;28;20041;-64
2022/10/18 03:17:38;;;;;;;9.60;1.70;;;8.90;99.90;;;;;;5048377;28;20132;-61
2022/10/18 03:20:06;;;;;;;7.25;2.58;;;8.90;99.90;;;;;;5048809;28;20059;-61
2022/10/18 03:22:32;;;;;;;3.83;1.13;;;9.00;99.90;;;;;;5048640;28;20407;-62
2022/10/18 03:24:59;;;;;;;5.25;1.30;;;8.90;99.90;;;;;;5048703;28;20068;-64
2022/10/18 03:27:26;;;;;;;3.88;1.40;;;9.00;99.90;;;;;;5048397;28;20049;-63
2022/10/18 03:29:53;;;;;;;5.63;1.30;;;8.90;99.90;;;;;;5048549;28;20049;-63
2022/10/18 03:32:19;;;;;;;7.25;1.30;;;8.80;99.90;;;;;;5048367;28;20052;-63
2022/10/18 03:34:46;;;;;;;4.65;1.13;;;8.80;99.90;;;;;;5047753;28;20045;-63
2022/10/18 03:37:13;;;;;;;3.95;1.25;;;8.80;99.90;;;;;;5047140;28;20045;-63
2022/10/18 03:39:39;;;;;;;22.58;6.25;;;8.70;99.90;;;;;;5048474;28;20204;-63
2022/10/18 03:42:06;;;;;;;6.10;1.40;;;8.70;99.90;;;;;;5048072;28;20045;-63
2022/10/18 03:44:33;;;;;;;5.22;1.70;;;8.70;99.90;;;;;;5048394;28;20045;-64
2022/10/18 03:47:00;;;;;;;12.18;1.90;;;8.70;99.90;;;;;;5047013;28;20053;-63
2022/10/18 03:49:26;;;;;;;4.50;1.48;;;8.60;99.90;;;;;;5048306;28;20045;-63
2022/10/18 03:51:53;;;;;;;6.25;2.20;;;8.60;99.90;;;;;;5048161;28;20491;-61
2022/10/18 03:54:20;;;;;;;7.75;1.95;;;8.70;99.90;;;;;;5048222;28;20072;-62
2022/10/18 03:56:47;;;;;;;7.75;1.90;;;8.70;99.90;;;;;;5048599;28;20491;-62
2022/10/18 03:59:15;;;;;;;5.88;1.98;;;8.70;99.90;;;;;;5048109;28;20045;-62
2022/10/18 04:01:42;;;;;;;2.90;0.95;;;8.70;99.90;;;;;;5048310;28;20057;-61
2022/10/18 04:04:09;;;;;;;7.53;1.65;;;8.70;99.90;;;;;;5041725;28;20041;-61
2022/10/18 04:06:36;;;;;;;4.68;1.33;;;8.70;99.90;;;;;;5038671;28;20445;-62
2022/10/18 04:09:02;;;;;;;3.40;1.05;;;8.60;99.90;;;;;;5047757;28;20049;-61
2022/10/18 04:11:35;;;;;;;3.20;1.10;;;8.50;99.90;;;;;;5047992;28;20515;-62
2022/10/18 04:14:01;;;;;;;6.28;1.50;;;8.50;99.90;;;;;;5047695;28;20151;-62
2022/10/18 04:16:28;;;;;;;11.00;1.25;;;8.40;99.90;;;;;;5048018;28;20092;-60
2022/10/18 04:18:55;;;;;;;5.53;1.48;;;8.30;99.90;;;;;;5047677;28;20118;-62
2022/10/18 04:21:21;;;;;;;5.18;1.52;;;8.40;99.90;;;;;;5047813;28;20168;-62
2022/10/18 04:23:49;;;;;;;5.93;1.45;;;8.30;99.90;;;;;;5046537;28;20041;-61
2022/10/18 04:26:16;;;;;;;6.22;1.25;;;8.40;99.90;;;;;;5048187;28;20265;-62
2022/10/18 04:28:42;;;;;;;6.90;1.70;;;8.40;99.90;;;;;;5047680;28;20124;-63
2022/10/18 04:31:10;;;;;;;13.30;1.85;;;8.50;99.90;;;;;;5047925;28;20436;-62
2022/10/18 04:33:37;;;;;;;9.45;1.10;;;8.40;99.90;;;;;;5047384;28;20484;-62
2022/10/18 04:36:04;;;;;;;3.45;1.48;;;8.40;99.90;;;;;;5047736;28;20512;-62
2022/10/18 04:38:30;;;;;;;5.43;1.38;;;8.40;99.90;;;;;;5047678;28;20186;-62
2022/10/18 04:40:57;;;;;;;3.35;1.17;;;8.40;99.90;;;;;;5039937;28;20053;-62
2022/10/18 04:43:24;;;;;;;6.35;1.80;;;8.30;99.90;;;;;;5047011;28;20106;-63
2022/10/18 04:45:51;;;;;;;3.20;1.27;;;8.30;99.90;;;;;;5047803;28;20143;-62
2022/10/18 04:48:17;;;;;;;6.45;1.40;;;8.30;99.90;;;;;;5051129;28;20049;-62
2022/10/18 04:50:47;;;;;;;5.50;1.77;;;8.30;99.90;;;;;;5050781;28;20073;-63
2022/10/18 04:53:14;;;;;;;14.90;1.60;;;8.30;99.90;;;;;;5052373;28;20051;-63
2022/10/18 04:55:47;;;;;;;12.93;2.70;;;8.30;99.90;;;;;;5052694;28;20037;-62
2022/10/18 04:58:15;;;;;;;9.77;1.63;;;8.30;99.90;;;;;;5053629;28;20055;-63
2022/10/18 05:00:42;;;;;;;8.32;1.50;;;8.30;99.90;;;;;;5053483;28;20041;-62
2022/10/18 05:03:09;;;;;;;7.55;1.98;;;8.30;99.90;;;;;;5053693;28;20135;-62
2022/10/18 05:05:36;;;;;;;10.23;1.50;;;8.30;99.90;;;;;;5035629;28;20041;-63
2022/10/18 05:08:22;;;;;;;7.32;1.83;;;8.30;99.90;;;;;;5031355;28;20056;-62
2022/10/18 05:10:49;;;;;;;12.50;2.30;;;8.30;99.90;;;;;;5046749;28;20057;-62
2022/10/18 05:13:16;;;;;;;6.80;1.83;;;8.20;99.90;;;;;;5050724;28;20136;-64
2022/10/18 05:15:45;;;;;;;5.55;1.23;;;8.20;99.90;;;;;;5050457;28;20076;-62
2022/10/18 05:18:12;;;;;;;4.82;1.20;;;8.10;99.90;;;;;;5050469;28;20136;-62
2022/10/18 05:20:38;;;;;;;5.28;1.75;;;8.00;99.90;;;;;;5050345;28;20704;-62
2022/10/18 05:23:05;;;;;;;5.55;1.40;;;7.90;99.90;;;;;;5050801;28;20064;-62
2022/10/18 05:25:32;;;;;;;3.33;1.23;;;7.90;99.90;;;;;;5051327;28;20124;-62
2022/10/18 05:27:59;;;;;;;4.65;1.60;;;7.90;99.90;;;;;;5051148;28;20076;-63
2022/10/18 05:30:37;;;;;;;8.10;1.42;;;7.90;99.90;;;;;;5050483;28;20048;-62
2022/10/18 05:33:04;;;;;;;7.88;1.55;;;7.90;99.90;;;;;;5051558;28;20087;-63
2022/10/18 05:35:31;;;;;;;5.20;1.52;;;7.90;99.90;;;;;;5052494;28;20100;-63
2022/10/18 05:38:01;;;;;;;13.40;1.85;;;7.90;99.90;;;;;;5053012;28;20136;-62
2022/10/18 05:40:27;;;;;;;9.13;2.05;;;7.90;99.90;;;;;;5052615;28;20406;-63
2022/10/18 05:42:54;;;;;;;4.07;1.45;;;8.00;99.90;;;;;;5052418;28;20045;-62
2022/10/18 05:45:21;;;;;;;15.35;1.95;;;7.90;99.90;;;;;;5052248;28;20045;-62
2022/10/18 05:47:47;;;;;;;7.82;1.55;;;8.00;99.90;;;;;;5050458;28;20124;-62
2022/10/18 05:50:14;;;;;;;10.10;1.88;;;8.00;99.90;;;;;;5050186;28;20594;-61
2022/10/18 05:52:44;;;;;;;6.30;1.35;;;7.90;99.90;;;;;;5050211;28;20516;-62
2022/10/18 05:55:10;;;;;;;5.55;2.28;;;7.90;99.90;;;;;;5051570;28;20051;-61
2022/10/18 05:57:37;;;;;;;6.47;2.00;;;7.90;99.90;;;;;;5049255;28;20530;-61
2022/10/18 06:00:04;;;;;;;10.38;2.53;;;8.00;99.90;;;;;;5050506;28;20049;-62
2022/10/18 06:02:31;;;;;;;15.35;2.75;;;8.00;99.90;;;;;;5050225;28;20174;-62
2022/10/18 06:04:58;;;;;;;8.68;2.25;;;7.90;99.90;;;;;;5050041;28;20048;-61
2022/10/18 06:07:25;;;;;;;5.22;1.88;;;7.90;99.90;;;;;;5049802;28;20055;-62
2022/10/18 06:09:51;;;;;;;6.15;1.48;;;7.90;99.90;;;;;;5049903;28;20132;-61
2022/10/18 06:12:18;;;;;;;5.90;1.52;;;7.90;99.90;;;;;;5050063;28;20041;-62
2022/10/18 06:14:46;;;;;;;9.40;1.77;;;7.80;99.90;;;;;;5049911;28;20135;-61
2022/10/18 06:17:12;;;;;;;5.13;2.67;;;7.70;99.90;;;;;;5049892;28;20045;-62
2022/10/18 06:19:39;;;;;;;9.07;1.88;;;7.70;99.90;;;;;;5049327;28;20072;-62
2022/10/18 06:22:06;;;;;;;5.65;2.90;;;7.70;99.90;;;;;;5049028;28;20415;-62
2022/10/18 06:24:33;;;;;;;7.18;2.10;;;7.70;99.90;;;;;;5049276;28;20052;-62
2022/10/18 06:27:00;;;;;;;3.92;1.45;;;7.80;99.90;;;;;;5046575;28;20048;-64
2022/10/18 06:29:26;;;;;;;6.13;2.17;;;7.90;99.90;;;;;;5049776;28;20037;-61
2022/10/18 06:31:53;;;;;;;10.73;2.35;;;7.90;99.90;;;;;;5049651;28;20051;-62
2022/10/18 06:34:20;;;;;;;12.27;3.25;;;7.90;99.90;;;;;;5049535;28;20116;-62
2022/10/18 06:36:47;;;;;;;17.25;3.40;;;7.90;99.90;;;;;;5049003;28;20053;-62
2022/10/18 06:39:14;;;;;;;10.52;2.55;;;7.90;99.90;;;;;;5047657;28;20041;-61
2022/10/18 06:41:41;;;;;;;11.20;2.60;;;7.90;99.90;;;;;;5049080;28;20052;-63
2022/10/18 06:44:12;;;;;;;11.88;2.17;;;7.80;99.90;;;;;;5048124;28;20144;-63
2022/10/18 06:46:40;;;;;;;3.90;1.58;;;7.80;99.90;;;;;;5029349;28;20459;-63
2022/10/18 06:49:07;;;;;;;5.65;2.33;;;7.60;99.90;;;;;;5046780;28;20085;-64
2022/10/18 06:51:34;;;;;;;7.70;1.90;;;7.60;99.90;;;;;;5047199;28;20041;-63
2022/10/18 06:54:00;;;;;;;12.60;1.98;;;7.60;99.90;;;;;;5048650;28;20052;-63
2022/10/18 06:56:44;;;;;;;11.13;1.67;;;7.60;99.90;;;;;;5048890;28;20051;-63
2022/10/18 06:59:11;;;;;;;8.55;1.98;;;7.60;99.90;;;;;;5048883;28;20055;-63
2022/10/18 07:01:38;;;;;;;7.88;3.42;;;7.70;99.90;;;;;;5046939;28;20044;-62
2022/10/18 07:04:05;;;;;;;5.95;2.22;;;7.70;99.90;;;;;;5047783;28;20045;-63
2022/10/18 07:06:31;;;;;;;9.35;2.95;;;7.70;99.90;;;;;;5048356;28;20080;-63
2022/10/18 07:08:59;;;;;;;12.27;2.63;;;7.80;99.90;;;;;;5048037;28;20045;-63
2022/10/18 07:11:25;;;;;;;10.18;3.15;;;7.80;99.90;;;;;;5048338;28;20471;-62
2022/10/18 07:13:53;;;;;;;9.75;2.85;;;7.80;99.90;;;;;;5047835;28;20045;-60
2022/10/18 07:16:20;;;;;;;6.22;2.22;;;7.90;99.90;;;;;;5048123;28;20045;-62
2022/10/18 07:18:48;;;;;;;9.65;2.90;;;7.90;99.90;;;;;;5046324;28;20147;-62
2022/10/18 07:21:17;;;;;;;15.43;4.22;;;7.90;99.90;;;;;;5047761;28;20080;-63
2022/10/18 07:23:45;;;;;;;7.70;2.78;;;8.00;99.90;;;;;;5046494;28;20140;-63
2022/10/18 07:26:15;;;;;;;12.98;2.65;;;8.00;99.90;;;;;;5047963;28;20475;-63
2022/10/18 07:28:43;;;;;;;31.67;4.07;;;8.10;99.90;;;;;;5047856;28;20049;-62
2022/10/18 07:31:10;;;;;;;31.85;4.60;;;8.10;99.90;;;;;;5047617;28;20452;-62
2022/10/18 07:33:37;;;;;;;29.67;5.47;;;8.10;99.90;;;;;;5048347;28;20415;-63
2022/10/18 07:36:05;;;;;;;28.45;4.50;;;8.20;99.90;;;;;;5047768;28;20073;-62
2022/10/18 07:38:32;;;;;;;18.45;4.95;;;8.20;99.90;;;;;;5047941;28;20278;-64
2022/10/18 07:41:00;;;;;;;22.48;5.10;;;8.20;99.90;;;;;;5047160;28;20458;-62
2022/10/18 07:43:27;;;;;;;17.33;4.32;;;8.20;99.90;;;;;;5047617;28;20139;-64
2022/10/18 07:45:58;;;;;;;30.60;8.05;;;8.20;99.90;;;;;;5047145;28;20246;-64
2022/10/18 07:48:25;;;;;;;17.42;5.38;;;8.20;99.90;;;;;;5030726;28;20052;-64
2022/10/18 07:50:52;;;;;;;24.58;5.82;;;8.30;99.90;;;;;;5045889;28;20044;-63
2022/10/18 07:53:19;;;;;;;18.23;5.75;;;8.40;99.90;;;;;;5047501;28;20072;-63
2022/10/18 07:55:45;;;;;;;17.73;4.75;;;8.40;99.90;;;;;;5046140;28;20833;-63
2022/10/18 07:58:12;;;;;;;19.90;6.22;;;8.50;99.90;;;;;;5047464;28;20091;-63
2022/10/18 08:00:39;;;;;;;24.65;5.45;;;8.60;99.90;;;;;;5046168;28;20072;-64
2022/10/18 08:03:06;;;;;;;17.15;5.18;;;8.70;99.90;;;;;;5047744;28;20191;-63
2022/10/18 08:05:33;;;;;;;18.88;6.00;;;8.80;99.90;;;;;;5046242;28;20040;-65
2022/10/18 08:07:59;;;;;;;23.50;5.82;;;8.90;99.90;;;;;;5045767;28;20056;-65
2022/10/18 08:10:33;;;;;;;14.00;4.47;;;9.00;99.90;;;;;;4696152;28;9999799;-63
2022/10/18 08:13:00;;;;;;;22.55;6.15;;;9.10;99.90;;;;;;5030721;28;20502;-63
2022/10/18 08:15:27;;;;;;;18.20;5.97;;;9.20;99.90;;;;;;5043056;28;20053;-62
2022/10/18 08:17:54;;;;;;;20.15;5.68;;;9.30;99.90;;;;;;5043234;28;20451;-64
2022/10/18 08:20:21;;;;;;;22.52;5.40;;;9.40;99.90;;;;;;5043667;28;20475;-64
2022/10/18 08:22:57;;;;;;;21.67;5.88;;;9.50;99.90;;;;;;5048573;28;20143;-64
2022/10/18 08:25:27;;;;;;;22.05;5.18;;;9.60;99.90;;;;;;5048776;28;20191;-64
2022/10/18 08:27:54;;;;;;;27.15;6.07;;;9.70;99.90;;;;;;5048856;28;20128;-62
2022/10/18 08:30:22;;;;;;;28.55;6.60;;;9.80;99.90;;;;;;5031015;28;20053;-66
2022/10/18 08:32:49;;;;;;;21.60;5.57;;;9.90;99.90;;;;;;5047540;28;20068;-63
2022/10/18 08:35:15;;;;;;;16.45;4.97;;;10.10;99.90;;;;;;5048688;28;20055;-63
2022/10/18 08:37:44;;;;;;;17.80;5.78;;;10.30;99.90;;;;;;5047999;28;20049;-65
2022/10/18 08:40:14;;;;;;;31.77;6.05;;;10.30;99.90;;;;;;5048440;28;20049;-63
2022/10/18 08:43:10;;;;;;;17.45;5.18;;;10.50;99.90;;;;;;5040889;28;20372;-63
2022/10/18 08:45:40;;;;;;;21.45;4.70;;;10.80;99.90;;;;;;5027235;28;20515;-64
2022/10/18 08:48:23;;;;;;;28.42;5.63;;;11.10;99.90;;;;;;5044064;28;20430;-63
2022/10/18 08:50:50;;;;;;;16.48;5.43;;;11.70;99.90;;;;;;5029895;28;20124;-63
2022/10/18 08:53:26;;;;;;;12.55;5.13;;;12.20;99.90;;;;;;5047783;28;20081;-62
2022/10/18 08:56:02;;;;;;;14.55;5.05;;;12.70;99.90;;;;;;5046517;28;20067;-63
2022/10/18 08:58:30;;;;;;;16.17;4.68;;;13.20;99.90;;;;;;5046976;28;20109;-63
2022/10/18 09:01:15;;;;;;;22.13;4.22;;;13.60;99.90;;;;;;5048596;28;20045;-63
2022/10/18 09:04:08;;;;;;;16.83;4.07;;;13.90;99.90;;;;;;5047004;28;20079;-63
2022/10/18 09:06:44;;;;;;;14.48;3.70;;;14.00;99.90;;;;;;5048537;28;20080;-64
2022/10/18 09:09:28;;;;;;;11.98;3.88;;;13.90;99.90;;;;;;5047791;28;20068;-64
2022/10/18 09:12:20;;;;;;;12.77;3.95;;;13.80;99.90;;;;;;5047341;28;20056;-63
2022/10/18 09:14:49;;;;;;;20.73;4.30;;;13.70;99.90;;;;;;5048272;28;20045;-63
2022/10/18 09:17:19;;;;;;;14.40;3.60;;;13.60;99.90;;;;;;5047619;28;20072;-63
2022/10/18 09:19:57;;;;;;;13.48;2.70;;;13.40;99.90;;;;;;5048306;28;20214;-64
2022/10/18 09:22:52;;;;;;;13.70;3.45;;;13.30;99.90;;;;;;5047777;28;20135;-62
2022/10/18 09:25:23;;;;;;;17.75;4.57;;;13.20;99.90;;;;;;5047107;28;20606;-63
2022/10/18 09:27:52;;;;;;;10.80;3.80;;;13.20;99.90;;;;;;5047367;28;20041;-63
2022/10/18 09:30:28;;;;;;;18.13;3.40;;;13.20;99.90;;;;;;5047282;28;20055;-63
2022/10/18 09:33:16;;;;;;;16.58;3.22;;;13.20;99.90;;;;;;5045179;28;20075;-64
2022/10/18 09:35:54;;;;;;;15.05;3.00;;;13.20;99.90;;;;;;5046299;28;20072;-63
2022/10/18 09:38:23;;;;;;;16.48;3.30;;;13.20;99.90;;;;;;5046265;28;20049;-64
2022/10/18 09:40:56;;;;;;;19.40;4.10;;;13.10;99.90;;;;;;5026545;28;20136;-64
2022/10/18 09:43:28;;;;;;;21.13;3.88;;;13.20;99.90;;;;;;5045821;28;20044;-64
2022/10/18 09:45:55;;;;;;;18.27;4.15;;;13.10;99.90;;;;;;5046447;28;20155;-64
2022/10/18 09:48:32;;;;;;;12.00;3.28;;;13.20;99.90;;;;;;5029774;28;20056;-64
2022/10/18 09:51:10;;;;;;;19.80;4.03;;;13.20;99.90;;;;;;5043498;28;20593;-64
2022/10/18 09:53:55;;;;;;;16.88;4.45;;;13.20;99.90;;;;;;5045659;28;20504;-63
2022/10/18 09:56:28;;;;;;;15.93;4.28;;;13.20;99.90;;;;;;5045265;28;20049;-64
2022/10/18 09:58:55;;;;;;;12.63;3.03;;;13.30;99.90;;;;;;5046171;28;20072;-62
2022/10/18 10:01:26;;;;;;;13.90;3.35;;;13.30;99.90;;;;;;5029722;28;20480;-63
2022/10/18 10:03:53;;;;;;;17.60;5.25;;;13.40;99.90;;;;;;5046014;28;20053;-64
2022/10/18 10:06:30;;;;;;;15.55;2.67;;;13.40;99.90;;;;;;5047101;28;20496;-64
2022/10/18 10:09:05;;;;;;;9.95;2.03;;;13.50;99.90;;;;;;5047168;28;20151;-63
2022/10/18 10:11:36;;;;;;;11.90;2.05;;;13.50;99.90;;;;;;5042205;28;20134;-63
2022/10/18 10:14:16;;;;;;;10.68;3.15;;;13.50;99.90;;;;;;5047177;28;20052;-63
2022/10/18 10:16:53;;;;;;;12.70;2.78;;;13.60;99.90;;;;;;5043562;28;20110;-64
2022/10/18 10:19:25;;;;;;;13.93;2.90;;;13.60;99.90;;;;;;5046828;28;20057;-64
2022/10/18 10:21:56;;;;;;;11.63;2.78;;;13.60;99.90;;;;;;5043044;28;20128;-65
2022/10/18 10:24:33;;;;;;;11.27;2.67;;;13.70;99.90;;;;;;5029067;28;20102;-64
2022/10/18 10:27:05;;;;;;;14.35;2.40;;;13.70;99.90;;;;;;5046088;28;20052;-62
2022/10/18 10:29:50;;;;;;;11.30;3.28;;;13.90;99.90;;;;;;5045205;28;20071;-64
2022/10/18 10:32:18;;;;;;;16.35;3.35;;;13.90;99.90;;;;;;5042914;28;20497;-64
2022/10/18 10:34:45;;;;;;;16.50;2.55;;;14.00;99.90;;;;;;5045959;28;20703;-64
2022/10/18 10:37:26;;;;;;;8.98;2.80;;;14.00;99.90;;;;;;5045426;28;20059;-64
2022/10/18 10:40:12;;;;;;;13.82;3.35;;;14.10;99.90;;;;;;5045110;28;20119;-65
2022/10/18 10:42:51;;;;;;;13.20;3.30;;;14.20;99.90;;;;;;5042367;28;20091;-63
2022/10/18 10:45:32;;;;;;;14.40;2.28;;;14.20;99.90;;;;;;5044696;28;20060;-64
2022/10/18 10:48:15;;;;;;;10.25;2.05;;;14.20;99.90;;;;;;5044732;28;20045;-63
2022/10/18 10:50:50;;;;;;;7.13;1.58;;;14.30;99.90;;;;;;5045678;28;20049;-65
2022/10/18 10:53:32;;;;;;;13.32;2.03;;;14.30;99.90;;;;;;5047321;28;20519;-63
2022/10/18 10:55:59;;;;;;;10.48;2.22;;;14.40;99.90;;;;;;5032687;28;20411;-63
2022/10/18 10:58:26;;;;;;;17.52;2.80;;;14.40;99.90;;;;;;5046141;28;20156;-64
2022/10/18 11:00:54;;;;;;;8.45;1.80;;;14.50;99.90;;;;;;5045488;28;20361;-64
2022/10/18 11:03:22;;;;;;;7.18;1.60;;;14.50;99.90;;;;;;5045550;28;20419;-64
2022/10/18 11:05:59;;;;;;;7.13;2.03;;;14.50;99.90;;;;;;5027989;28;20084;-64
2022/10/18 11:08:28;;;;;;;10.15;2.13;;;14.60;99.90;;;;;;5044315;28;20049;-64
2022/10/18 11:11:14;;;;;;;12.32;2.13;;;14.60;99.90;;;;;;5043185;28;20708;-65
2022/10/18 11:13:57;;;;;;;9.73;1.83;;;14.70;99.90;;;;;;5043455;28;20482;-64
2022/10/18 11:17:09;;;;;;;9.38;2.85;;;14.80;99.90;;;;;;5030668;28;20535;-61
2022/10/18 11:19:48;;;;;;;11.35;2.30;;;14.80;99.90;;;;;;5036085;28;20347;-64
2022/10/18 11:22:17;;;;;;;9.05;2.20;;;15.00;99.90;;;;;;5029225;28;20487;-63
2022/10/18 11:24:44;;;;;;;7.35;1.70;;;15.10;99.90;;;;;;5011595;28;20051;-64
2022/10/18 11:27:17;;;;;;;17.25;3.15;;;15.10;99.90;;;;;;5045404;28;20127;-65
2022/10/18 11:29:50;;;;;;;15.75;1.77;;;15.10;99.90;;;;;;5044319;28;20158;-65
2022/10/18 11:32:39;;;;;;;7.78;1.17;;;15.20;99.90;;;;;;5045436;28;20059;-64
2022/10/18 11:35:19;;;;;;;6.00;1.90;;;15.10;99.90;;;;;;5037809;28;20139;-63
2022/10/18 11:37:55;;;;;;;11.55;1.88;;;15.20;99.90;;;;;;5043808;28;20040;-65
2022/10/18 11:40:46;;;;;;;17.75;2.20;;;15.20;99.90;;;;;;5028321;28;20144;-65
2022/10/18 11:43:38;;;;;;;7.20;2.05;;;15.20;99.90;;;;;;5043805;28;20087;-65
2022/10/18 11:46:26;;;;;;;3.70;1.48;;;15.30;99.90;;;;;;5032229;28;20056;-64
2022/10/18 11:48:59;;;;;;;13.40;2.35;;;15.40;99.90;;;;;;5045110;28;20590;-64
2022/10/18 11:51:38;;;;;;;11.63;2.60;;;15.50;99.90;;;;;;5043650;28;20420;-64
2022/10/18 11:54:48;;;;;;;3.28;1.25;;;15.60;99.90;;;;;;5044819;28;20499;-65
2022/10/18 11:57:24;;;;;;;13.50;2.17;;;15.60;99.90;;;;;;5044881;28;20045;-64
2022/10/18 12:00:02;;;;;;;10.32;1.90;;;15.60;99.90;;;;;;5043613;28;20623;-65
2022/10/18 12:02:42;;;;;;;19.10;2.13;;;15.70;99.90;;;;;;5044029;28;20055;-65
2022/10/18 12:05:09;;;;;;;9.13;2.30;;;15.60;99.90;;;;;;5043161;28;20045;-64
2022/10/18 12:07:57;;;;;;;14.68;2.55;;;15.70;99.90;;;;;;5029348;28;20049;-64
2022/10/18 12:10:24;;;;;;;15.82;1.75;;;15.60;99.90;;;;;;5043127;28;20069;-64
2022/10/18 12:13:33;;;;;;;12.05;1.90;;;15.70;99.90;;;;;;5043385;28;20048;-65
2022/10/18 12:16:02;;;;;;;11.20;1.73;;;15.80;99.90;;;;;;5042425;28;20076;-64
2022/10/18 12:18:29;;;;;;;14.80;2.60;;;15.90;99.90;;;;;;5040368;28;20057;-64
2022/10/18 12:20:56;;;;;;;14.00;2.22;;;15.90;99.90;;;;;;5043224;28;20488;-64
2022/10/18 12:23:44;;;;;;;17.38;1.95;;;15.90;99.90;;;;;;5043055;28;20047;-64
2022/10/18 12:26:10;;;;;;;11.88;2.70;;;15.90;99.90;;;;;;5042258;28;20041;-65
2022/10/18 12:28:43;;;;;;;15.10;2.33;;;15.90;99.90;;;;;;5044101;28;20049;-64
2022/10/18 12:31:25;;;;;;;10.27;1.60;;;16.00;99.90;;;;;;5043202;28;20511;-63
2022/10/18 12:34:02;;;;;;;11.15;2.05;;;16.00;99.90;;;;;;5042894;28;20924;-64
2022/10/18 12:36:33;;;;;;;10.90;2.05;;;16.00;99.90;;;;;;5025274;28;20045;-63
2022/10/18 12:39:01;;;;;;;12.10;3.03;;;16.00;99.90;;;;;;5043624;28;20059;-64
2022/10/18 12:41:29;;;;;;;12.82;2.00;;;16.10;99.90;;;;;;5041674;28;20087;-63
2022/10/18 12:44:05;;;;;;;10.68;1.85;;;16.10;99.90;;;;;;5041386;28;20057;-65
2022/10/18 12:46:52;;;;;;;9.75;2.05;;;16.10;99.90;;;;;;5042042;28;20037;-64
2022/10/18 12:49:30;;;;;;;10.50;3.10;;;16.10;99.90;;;;;;5025792;28;20057;-65
2022/10/18 12:52:20;;;;;;;8.25;1.85;;;16.10;99.90;;;;;;5039047;28;20063;-64
2022/10/18 12:55:19;;;;;;;10.25;2.17;;;16.20;99.90;;;;;;5041801;28;20055;-64
2022/10/18 12:57:51;;;;;;;7.72;1.92;;;16.20;99.90;;;;;;5019928;28;20470;-63
2022/10/18 13:00:30;;;;;;;9.70;2.45;;;16.30;99.90;;;;;;5044203;28;20080;-64
2022/10/18 13:03:23;;;;;;;7.30;1.55;;;16.30;99.90;;;;;;5044223;28;20518;-64
2022/10/18 13:05:55;;;;;;;14.75;1.85;;;16.30;99.90;;;;;;5033482;28;20045;-64
2022/10/18 13:08:32;;;;;;;9.65;2.03;;;16.40;99.90;;;;;;5047544;28;20139;-63
2022/10/18 13:11:10;;;;;;;10.65;2.20;;;16.40;99.90;;;;;;5044452;28;20136;-63